createdAt,value
2023-02-22T00:03:15.444Z,6.53
2023-02-22T00:08:18.936Z,6.03
2023-02-22T00:13:22.770Z,5.07
2023-02-22T00:18:28.696Z,5.97
2023-02-22T00:23:32.424Z,6.22
2023-02-22T00:28:35.522Z,5.97
2023-02-22T00:33:40.865Z,5.82
2023-02-22T00:38:43.908Z,4.50
2023-02-22T00:43:48.871Z,5.40
2023-02-22T00:48:52.983Z,4.93
2023-02-22T00:53:55.732Z,5.55
2023-02-22T00:58:58.476Z,5.13
2023-02-22T01:04:02.519Z,4.40
2023-02-22T01:09:07.676Z,6.68
2023-02-22T01:14:11.579Z,4.07
2023-02-22T01:19:16.085Z,4.78
2023-02-22T01:24:19.467Z,4.35
2023-02-22T01:29:22.440Z,5.57
2023-02-22T01:34:26.672Z,6.05
2023-02-22T01:39:29.396Z,6.82
2023-02-22T01:44:34.509Z,5.93
2023-02-22T01:49:41.965Z,4.03
2023-02-22T01:54:47.270Z,4.95
2023-02-22T01:59:52.563Z,4.32
2023-02-22T02:04:59.276Z,4.47
2023-02-22T02:10:03.443Z,4.30
2023-02-22T02:15:21.913Z,6.40
2023-02-22T02:20:29.319Z,3.85
2023-02-22T02:26:05.057Z,4.65
2023-02-22T02:31:54.815Z,3.97
2023-02-22T02:37:00.234Z,4.97
2023-02-22T02:42:06.378Z,4.78
2023-02-22T02:47:14.477Z,4.85
2023-02-22T02:52:17.951Z,3.95
2023-02-22T02:57:22.402Z,3.60
2023-02-22T03:02:45.837Z,4.65
2023-02-22T03:07:53.311Z,3.75
2023-02-22T03:13:02.345Z,5.13
2023-02-22T03:18:08.949Z,3.67
2023-02-22T03:23:15.149Z,5.10
2023-02-22T03:28:19.944Z,5.38
2023-02-22T03:33:34.011Z,6.55
2023-02-22T03:38:38.528Z,4.10
2023-02-22T03:43:44.526Z,5.07
2023-02-22T03:48:55.211Z,4.38
2023-02-22T03:53:58.201Z,5.50
2023-02-22T03:59:06.751Z,6.57
2023-02-22T04:04:10.922Z,4.97
2023-02-22T04:09:15.045Z,4.55
2023-02-22T04:14:17.932Z,8.70
2023-02-22T04:19:22.103Z,5.40
2023-02-22T04:24:27.736Z,6.85
2023-02-22T04:29:31.991Z,6.40
2023-02-22T04:34:36.418Z,11.13
2023-02-22T04:39:39.253Z,8.52
2023-02-22T04:44:42.169Z,8.32
2023-02-22T04:49:46.615Z,5.88
2023-02-22T04:54:50.724Z,6.22
2023-02-22T04:59:54.772Z,6.82
2023-02-22T05:05:00.860Z,5.63
2023-02-22T05:10:03.694Z,7.90
2023-02-22T05:15:07.656Z,5.90
2023-02-22T05:20:19.788Z,7.63
2023-02-22T05:25:22.587Z,10.13
2023-02-22T05:30:27.316Z,5.28
2023-02-22T05:35:31.399Z,6.22
2023-02-22T05:40:34.265Z,7.00
2023-02-22T05:45:37.103Z,8.90
2023-02-22T05:50:41.615Z,6.88
2023-02-22T05:55:46.422Z,8.20
2023-02-22T06:00:49.335Z,11.90
2023-02-22T06:05:53.437Z,10.63
2023-02-22T06:10:56.217Z,10.30
2023-02-22T06:15:59.072Z,10.10
2023-02-22T06:21:03.176Z,8.07
2023-02-22T06:26:06.424Z,11.13
2023-02-22T06:31:09.101Z,8.90
2023-02-22T06:36:13.517Z,9.18
2023-02-22T06:41:16.690Z,11.43
2023-02-22T06:46:21.086Z,13.95
2023-02-22T06:51:25.152Z,13.48
2023-02-22T06:56:27.960Z,11.15
2023-02-22T07:01:30.759Z,12.93
2023-02-22T07:06:34.923Z,9.32
2023-02-22T07:11:39.751Z,7.00
2023-02-22T07:16:42.434Z,8.80
2023-02-22T07:21:47.896Z,6.40
2023-02-22T07:26:50.607Z,7.20
2023-02-22T07:31:53.347Z,11.05
2023-02-22T07:36:57.509Z,10.55
2023-02-22T07:42:00.257Z,16.88
2023-02-22T07:47:05.486Z,12.40
2023-02-22T07:52:10.006Z,12.52
2023-02-22T07:57:13.875Z,13.52
2023-02-22T08:02:17.166Z,14.02
2023-02-22T08:07:21.258Z,13.40
2023-02-22T08:12:24.098Z,12.63
2023-02-22T08:17:26.838Z,11.00
2023-02-22T08:22:30.915Z,11.45
2023-02-22T08:27:34.303Z,11.80
2023-02-22T08:32:37.510Z,12.02
2023-02-22T08:37:45.243Z,11.98
2023-02-22T08:42:48.269Z,12.45
2023-02-22T08:47:51.071Z,14.90
2023-02-22T08:52:56.443Z,15.48
2023-02-22T08:57:59.326Z,15.98
2023-02-22T09:03:03.252Z,14.30
2023-02-22T09:08:07.370Z,16.00
2023-02-22T09:13:10.196Z,17.17
2023-02-22T09:18:14.525Z,15.68
2023-02-22T09:23:21.704Z,14.63
2023-02-22T09:28:24.927Z,11.63
2023-02-22T09:33:27.675Z,12.13
2023-02-22T09:38:32.685Z,13.70
2023-02-22T09:43:41.454Z,15.32
2023-02-22T09:48:57.788Z,12.50
2023-02-22T09:54:03.648Z,12.07
2023-02-22T09:59:08.569Z,13.90
2023-02-22T10:04:18.467Z,13.30
2023-02-22T10:09:23.740Z,12.93
2023-02-22T10:14:46.402Z,13.55
2023-02-22T10:20:00.932Z,11.73
2023-02-22T10:25:09.567Z,11.57
2023-02-22T10:30:24.449Z,11.23
2023-02-22T10:35:30.743Z,11.65
2023-02-22T10:40:34.863Z,11.75
2023-02-22T10:45:37.954Z,11.02
2023-02-22T10:50:42.950Z,11.70
2023-02-22T10:56:13.756Z,12.35
2023-02-22T11:01:27.207Z,10.20
2023-02-22T11:06:30.993Z,12.80
2023-02-22T11:11:35.083Z,11.32
2023-02-22T11:16:40.600Z,11.13
2023-02-22T11:21:43.524Z,8.43
2023-02-22T11:26:50.293Z,11.13
2023-02-22T11:31:54.092Z,8.82
2023-02-22T11:36:57.853Z,8.77
2023-02-22T11:42:15.337Z,7.03
2023-02-22T11:47:18.034Z,9.52
2023-02-22T11:52:28.156Z,7.63
2023-02-22T11:57:46.655Z,8.77
2023-02-22T12:03:01.109Z,8.13
2023-02-22T12:08:19.596Z,9.65
2023-02-22T12:13:32.870Z,8.20
2023-02-22T12:18:41.243Z,7.78
2023-02-22T12:23:50.584Z,9.50
2023-02-22T12:28:59.306Z,8.30
2023-02-22T12:34:09.545Z,8.32
2023-02-22T12:39:47.133Z,9.30
2023-02-22T12:44:59.936Z,7.95
2023-02-22T12:50:06.866Z,7.60
2023-02-22T12:55:16.889Z,6.22
2023-02-22T13:00:26.495Z,10.63
2023-02-22T13:05:31.783Z,7.47
2023-02-22T13:10:52.898Z,8.73
2023-02-22T13:16:01.394Z,6.13
2023-02-22T13:21:07.794Z,8.13
2023-02-22T13:26:15.218Z,7.22
2023-02-22T13:31:36.871Z,6.22
2023-02-22T13:36:55.241Z,6.15
2023-02-22T13:42:07.828Z,5.35
2023-02-22T13:47:30.684Z,5.72
2023-02-22T13:52:35.351Z,4.97
2023-02-22T13:57:40.360Z,5.20
2023-02-22T14:03:02.256Z,4.80
2023-02-22T14:08:05.571Z,5.35
2023-02-22T14:13:08.913Z,6.90
2023-02-22T14:18:17.631Z,4.18
2023-02-22T14:23:35.321Z,5.32
2023-02-22T14:28:48.615Z,6.35
2023-02-22T14:34:11.666Z,4.95
2023-02-22T14:39:21.178Z,4.00
2023-02-22T14:44:28.617Z,3.55
2023-02-22T14:49:36.053Z,4.45
2023-02-22T14:54:50.840Z,3.88
2023-02-22T15:00:07.943Z,3.00
2023-02-22T15:05:14.930Z,2.75
2023-02-22T15:10:24.263Z,2.65
2023-02-22T15:15:27.496Z,2.80
2023-02-22T15:20:32.086Z,5.63
2023-02-22T15:25:37.628Z,3.97
2023-02-22T15:30:40.339Z,4.72
2023-02-22T15:35:45.191Z,2.80
2023-02-22T15:40:50.725Z,4.05
2023-02-22T15:45:53.618Z,2.58
2023-02-22T15:51:06.603Z,6.15
2023-02-22T15:56:13.308Z,5.50
2023-02-22T16:01:19.241Z,16.42
2023-02-22T16:06:30.326Z,3.30
2023-02-22T16:11:34.542Z,3.75
2023-02-22T16:16:41.723Z,4.95
2023-02-22T16:21:54.412Z,6.18
2023-02-22T16:27:06.774Z,4.00
2023-02-22T16:32:10.063Z,5.38
2023-02-22T16:37:24.080Z,4.72
2023-02-22T16:42:26.892Z,4.55
2023-02-22T16:47:29.681Z,6.13
2023-02-22T16:52:34.066Z,6.88
2023-02-22T16:57:38.285Z,4.80
2023-02-22T17:02:41.252Z,6.10
2023-02-22T17:07:45.517Z,8.75
2023-02-22T17:12:49.154Z,15.93
2023-02-22T17:17:52.457Z,9.18
2023-02-22T17:22:56.965Z,7.97
2023-02-22T17:27:59.802Z,8.13
2023-02-22T17:33:04.120Z,8.93
2023-02-22T17:38:08.438Z,7.63
2023-02-22T17:43:11.428Z,8.43
2023-02-22T17:48:15.587Z,7.53
2023-02-22T17:53:22.486Z,9.95
2023-02-22T17:58:29.100Z,11.75
2023-02-22T18:03:32.693Z,13.75
2023-02-22T18:08:39.184Z,12.30
2023-02-22T18:13:42.562Z,12.15
2023-02-22T18:18:45.374Z,14.98
2023-02-22T18:23:49.724Z,14.85
2023-02-22T18:28:53.659Z,14.27
2023-02-22T18:33:58.258Z,13.18
2023-02-22T18:39:03.488Z,17.10
2023-02-22T18:44:10.294Z,15.82
2023-02-22T18:49:13.990Z,12.60
2023-02-22T18:54:19.846Z,13.85
2023-02-22T18:59:23.290Z,13.45
2023-02-22T19:04:26.113Z,14.48
2023-02-22T19:09:30.826Z,15.35
2023-02-22T19:14:33.691Z,17.15
2023-02-22T19:19:36.478Z,13.13
2023-02-22T19:24:40.688Z,13.48
2023-02-22T19:29:43.480Z,13.00
2023-02-22T19:34:47.155Z,13.63
2023-02-22T19:39:51.343Z,13.50
2023-02-22T19:44:54.265Z,15.50
2023-02-22T19:49:59.660Z,15.63
2023-02-22T19:55:04.570Z,11.95
2023-02-22T20:00:11.374Z,12.48
2023-02-22T20:05:16.579Z,12.07
2023-02-22T20:10:21.013Z,11.68
2023-02-22T20:15:24.061Z,11.93
2023-02-22T20:20:28.420Z,13.05
2023-02-22T20:25:35.331Z,11.23
2023-02-22T20:30:38.444Z,11.02
2023-02-22T20:35:41.465Z,11.38
2023-02-22T20:40:46.837Z,11.55
2023-02-22T20:45:49.714Z,12.15
2023-02-22T20:50:52.683Z,13.15
2023-02-22T20:55:59.086Z,13.20
2023-02-22T21:01:06.299Z,14.15
2023-02-22T21:06:09.819Z,14.80
2023-02-22T21:11:14.904Z,11.85
2023-02-22T21:16:20.189Z,15.57
2023-02-22T21:21:23.461Z,15.50
2023-02-22T21:26:29.479Z,15.77
2023-02-22T21:31:32.747Z,13.25
2023-02-22T21:36:35.626Z,13.68
2023-02-22T21:41:40.954Z,13.88
2023-02-22T21:46:44.084Z,13.07
2023-02-22T21:51:47.086Z,14.10
2023-02-22T21:56:52.454Z,14.48
2023-02-22T22:01:56.710Z,11.75
2023-02-22T22:07:00.674Z,14.77
2023-02-22T22:12:05.844Z,13.63
2023-02-22T22:17:09.535Z,15.77
2023-02-22T22:22:12.763Z,15.68
2023-02-22T22:27:17.087Z,15.65
2023-02-22T22:32:21.532Z,18.88
2023-02-22T22:37:24.417Z,16.05
2023-02-22T22:42:28.654Z,14.65
2023-02-22T22:47:31.400Z,11.45
2023-02-22T22:52:37.527Z,11.15
2023-02-22T22:57:42.803Z,12.88
2023-02-22T23:02:48.530Z,15.45
2023-02-22T23:07:51.665Z,12.85
2023-02-22T23:12:57.097Z,13.85
2023-02-22T23:17:59.885Z,13.68
2023-02-22T23:23:02.675Z,11.98
2023-02-22T23:28:14.481Z,12.13
2023-02-22T23:33:17.292Z,11.85
2023-02-22T23:38:20.001Z,13.50
2023-02-22T23:43:25.498Z,10.55
2023-02-22T23:48:29.984Z,10.50
2023-02-22T23:53:32.721Z,12.13
2023-02-22T23:58:38.102Z,10.23
